createdAt,value
2023-02-03T00:02:04.268Z,14.30
2023-02-03T00:04:31.202Z,14.30
2023-02-03T00:06:58.170Z,14.20
2023-02-03T00:09:25.530Z,14.30
2023-02-03T00:11:52.463Z,14.20
2023-02-03T00:14:19.351Z,14.20
2023-02-03T00:16:46.287Z,14.20
2023-02-03T00:19:13.227Z,14.20
2023-02-03T00:21:40.184Z,14.20
2023-02-03T00:24:07.131Z,14.10
2023-02-03T00:26:34.046Z,14.10
2023-02-03T00:29:00.999Z,14.10
2023-02-03T00:31:27.928Z,14.10
2023-02-03T00:33:58.259Z,14.10
2023-02-03T00:36:26.045Z,14.00
2023-02-03T00:38:53.719Z,14.00
2023-02-03T00:41:21.684Z,14.00
2023-02-03T00:43:49.841Z,14.00
2023-02-03T00:46:16.989Z,13.90
2023-02-03T00:48:43.907Z,13.90
2023-02-03T00:51:10.765Z,13.80
2023-02-03T00:53:37.679Z,13.80
2023-02-03T00:56:12.504Z,13.80
2023-02-03T00:58:42.271Z,13.80
2023-02-03T01:01:09.871Z,13.80
2023-02-03T01:03:37.244Z,13.80
2023-02-03T01:06:17.430Z,13.80
2023-02-03T01:08:44.938Z,13.80
2023-02-03T01:11:17.343Z,13.80
2023-02-03T01:13:44.923Z,13.80
2023-02-03T01:16:13.607Z,13.80
2023-02-03T01:18:41.014Z,13.80
2023-02-03T01:21:16.786Z,13.80
2023-02-03T01:23:44.473Z,13.80
2023-02-03T01:26:14.249Z,13.80
2023-02-03T01:28:41.967Z,13.80
2023-02-03T01:31:13.560Z,13.80
2023-02-03T01:33:41.119Z,13.70
2023-02-03T01:36:09.815Z,13.70
2023-02-03T01:38:37.876Z,13.70
2023-02-03T01:41:07.577Z,13.70
2023-02-03T01:43:40.096Z,13.70
2023-02-03T01:46:22.192Z,13.70
2023-02-03T01:48:49.250Z,13.60
2023-02-03T01:51:16.118Z,13.70
2023-02-03T01:53:43.258Z,13.70
2023-02-03T01:56:10.471Z,13.60
2023-02-03T01:58:41.197Z,13.60
2023-02-03T02:01:08.304Z,13.60
2023-02-03T02:03:40.523Z,13.70
2023-02-03T02:06:10.117Z,13.60
2023-02-03T02:08:39.642Z,13.60
2023-02-03T02:11:07.502Z,13.60
2023-02-03T02:13:35.999Z,13.60
2023-02-03T02:16:15.685Z,13.60
2023-02-03T02:19:13.258Z,13.60
2023-02-03T02:21:43.131Z,13.60
2023-02-03T02:24:36.932Z,13.60
2023-02-03T02:27:26.316Z,13.60
2023-02-03T02:30:11.920Z,13.50
2023-02-03T02:32:53.589Z,13.50
2023-02-03T02:35:39.490Z,13.50
2023-02-03T02:38:22.620Z,13.40
2023-02-03T02:40:52.521Z,13.40
2023-02-03T02:43:43.667Z,13.40
2023-02-03T02:46:18.185Z,13.40
2023-02-03T02:48:51.200Z,13.40
2023-02-03T02:51:18.999Z,13.50
2023-02-03T02:54:03.376Z,13.50
2023-02-03T02:56:31.792Z,13.50
2023-02-03T02:59:01.667Z,13.50
2023-02-03T03:01:28.746Z,13.50
2023-02-03T03:03:56.399Z,13.50
2023-02-03T03:06:33.600Z,13.50
2023-02-03T03:09:17.919Z,13.50
2023-02-03T03:11:50.336Z,13.50
2023-02-03T03:14:19.978Z,13.50
2023-02-03T03:16:57.462Z,13.50
2023-02-03T03:19:29.721Z,13.50
2023-02-03T03:22:01.347Z,13.50
2023-02-03T03:24:41.086Z,13.50
2023-02-03T03:27:36.121Z,13.50
2023-02-03T03:30:09.505Z,13.50
2023-02-03T03:32:36.696Z,13.40
2023-02-03T03:35:05.138Z,13.40
2023-02-03T03:37:57.547Z,13.40
2023-02-03T03:40:28.321Z,13.40
2023-02-03T03:43:01.429Z,13.40
2023-02-03T03:45:33.815Z,13.40
2023-02-03T03:48:12.095Z,13.30
2023-02-03T03:50:45.323Z,13.40
2023-02-03T03:53:14.632Z,13.30
2023-02-03T03:55:43.303Z,13.30
2023-02-03T03:58:24.938Z,13.30
2023-02-03T04:00:56.067Z,13.30
2023-02-03T04:03:27.690Z,13.30
2023-02-03T04:05:54.585Z,13.30
2023-02-03T04:08:21.391Z,13.30
2023-02-03T04:10:48.303Z,13.30
2023-02-03T04:13:16.182Z,13.30
2023-02-03T04:15:43.045Z,13.30
2023-02-03T04:18:14.051Z,13.30
2023-02-03T04:20:41.246Z,13.30
2023-02-03T04:23:08.839Z,13.30
2023-02-03T04:25:36.052Z,13.30
2023-02-03T04:28:03.546Z,13.30
2023-02-03T04:30:30.504Z,13.30
2023-02-03T04:32:57.543Z,13.30
2023-02-03T04:35:24.401Z,13.30
2023-02-03T04:37:51.360Z,13.30
2023-02-03T04:40:18.436Z,13.30
2023-02-03T04:42:45.280Z,13.30
2023-02-03T04:45:12.775Z,13.30
2023-02-03T04:47:40.740Z,13.30
2023-02-03T04:50:08.102Z,13.20
2023-02-03T04:52:34.981Z,13.30
2023-02-03T04:55:02.022Z,13.20
2023-02-03T04:57:28.864Z,13.20
2023-02-03T04:59:55.788Z,13.20
2023-02-03T05:02:22.715Z,13.20
2023-02-03T05:04:49.567Z,13.20
2023-02-03T05:07:16.410Z,13.10
2023-02-03T05:09:43.289Z,13.10
2023-02-03T05:12:10.099Z,13.10
2023-02-03T05:14:36.899Z,13.10
2023-02-03T05:17:03.771Z,13.00
2023-02-03T05:19:30.621Z,13.00
2023-02-03T05:21:57.476Z,13.00
2023-02-03T05:24:24.357Z,13.00
2023-02-03T05:26:51.229Z,13.00
2023-02-03T05:29:18.075Z,13.00
2023-02-03T05:31:45.017Z,12.90
2023-02-03T05:34:11.946Z,12.90
2023-02-03T05:36:38.862Z,12.90
2023-02-03T05:39:05.762Z,12.90
2023-02-03T05:41:50.982Z,12.80
2023-02-03T05:44:18.295Z,12.80
2023-02-03T05:46:45.180Z,12.80
2023-02-03T05:49:12.076Z,12.80
2023-02-03T05:51:39.640Z,12.80
2023-02-03T05:54:07.665Z,12.80
2023-02-03T05:56:34.819Z,12.80
2023-02-03T05:59:01.775Z,12.80
2023-02-03T06:01:28.783Z,12.80
2023-02-03T06:03:55.678Z,12.80
2023-02-03T06:06:22.735Z,12.80
2023-02-03T06:08:51.218Z,12.80
2023-02-03T06:11:18.338Z,12.80
2023-02-03T06:13:45.174Z,12.80
2023-02-03T06:16:12.097Z,12.80
2023-02-03T06:18:38.962Z,12.80
2023-02-03T06:21:06.049Z,12.90
2023-02-03T06:23:33.116Z,12.90
2023-02-03T06:26:02.607Z,12.90
2023-02-03T06:28:30.301Z,12.90
2023-02-03T06:30:57.152Z,12.90
2023-02-03T06:33:24.133Z,12.90
2023-02-03T06:35:50.978Z,12.90
2023-02-03T06:38:17.783Z,12.90
2023-02-03T06:40:47.254Z,12.90
2023-02-03T06:43:14.466Z,12.80
2023-02-03T06:45:41.415Z,12.80
2023-02-03T06:48:08.784Z,12.80
2023-02-03T06:50:35.987Z,12.90
2023-02-03T06:53:02.830Z,12.80
2023-02-03T06:55:29.656Z,12.80
2023-02-03T06:57:56.535Z,12.80
2023-02-03T07:00:24.416Z,12.80
2023-02-03T07:02:55.985Z,12.80
2023-02-03T07:05:23.918Z,12.80
2023-02-03T07:07:51.699Z,12.80
2023-02-03T07:10:18.793Z,12.70
2023-02-03T07:12:46.395Z,12.70
2023-02-03T07:15:13.775Z,12.70
2023-02-03T07:17:40.692Z,12.70
2023-02-03T07:20:08.210Z,12.60
2023-02-03T07:22:36.498Z,12.60
2023-02-03T07:25:03.449Z,12.60
2023-02-03T07:27:30.338Z,12.60
2023-02-03T07:29:57.239Z,12.60
2023-02-03T07:32:24.169Z,12.60
2023-02-03T07:34:50.978Z,12.50
2023-02-03T07:37:17.862Z,12.50
2023-02-03T07:39:46.199Z,12.50
2023-02-03T07:42:13.118Z,12.50
2023-02-03T07:44:39.969Z,12.50
2023-02-03T07:47:06.875Z,12.50
2023-02-03T07:49:33.700Z,12.50
2023-02-03T07:52:00.918Z,12.50
2023-02-03T07:54:27.849Z,12.50
2023-02-03T07:56:55.039Z,12.50
2023-02-03T07:59:22.014Z,12.50
2023-02-03T08:01:49.081Z,12.50
2023-02-03T08:04:17.387Z,12.50
2023-02-03T08:06:44.503Z,12.50
2023-02-03T08:09:11.991Z,12.50
2023-02-03T08:11:38.853Z,12.60
2023-02-03T08:14:05.708Z,12.60
2023-02-03T08:16:32.685Z,12.60
2023-02-03T08:18:59.626Z,12.70
2023-02-03T08:21:26.527Z,12.70
2023-02-03T08:23:53.386Z,12.80
2023-02-03T08:26:20.209Z,12.80
2023-02-03T08:28:50.395Z,12.80
2023-02-03T08:31:17.612Z,12.80
2023-02-03T08:33:44.716Z,12.90
2023-02-03T08:36:11.682Z,12.90
2023-02-03T08:38:39.852Z,12.90
2023-02-03T08:41:12.158Z,13.00
2023-02-03T08:43:39.177Z,12.90
2023-02-03T08:46:08.141Z,13.00
2023-02-03T08:48:35.438Z,13.00
2023-02-03T08:51:02.760Z,13.00
2023-02-03T08:53:29.748Z,13.10
2023-02-03T08:55:56.535Z,13.10
2023-02-03T08:58:23.361Z,13.00
2023-02-03T09:00:53.312Z,13.00
2023-02-03T09:03:20.281Z,13.00
2023-02-03T09:05:47.220Z,13.00
2023-02-03T09:08:14.106Z,12.90
2023-02-03T09:10:40.958Z,12.90
2023-02-03T09:13:07.727Z,12.90
2023-02-03T09:15:34.716Z,12.90
2023-02-03T09:18:01.575Z,12.90
2023-02-03T09:20:29.583Z,12.80
2023-02-03T09:22:59.632Z,12.80
2023-02-03T09:25:26.610Z,12.80
2023-02-03T09:27:53.518Z,12.90
2023-02-03T09:30:20.427Z,12.90
2023-02-03T09:32:54.022Z,12.90
2023-02-03T09:35:21.385Z,13.00
2023-02-03T09:37:48.986Z,13.00
2023-02-03T09:40:26.439Z,13.00
2023-02-03T09:43:34.272Z,13.10
2023-02-03T09:46:16.090Z,13.10
2023-02-03T09:48:46.969Z,13.20
2023-02-03T09:51:30.171Z,13.20
2023-02-03T09:54:23.042Z,13.30
2023-02-03T09:56:52.621Z,13.40
2023-02-03T09:59:19.997Z,13.40
2023-02-03T10:01:56.690Z,13.50
2023-02-03T10:04:39.450Z,13.50
2023-02-03T10:07:25.364Z,13.60
2023-02-03T10:10:26.474Z,13.60
2023-02-03T10:13:01.761Z,13.70
2023-02-03T10:15:49.587Z,13.80
2023-02-03T10:18:33.760Z,13.80
2023-02-03T10:21:06.225Z,13.90
2023-02-03T10:23:40.510Z,14.00
2023-02-03T10:26:17.398Z,14.00
2023-02-03T10:29:26.034Z,14.00
2023-02-03T10:31:57.483Z,14.10
2023-02-03T10:34:26.242Z,14.10
2023-02-03T10:36:58.722Z,14.20
2023-02-03T10:39:33.586Z,14.20
2023-02-03T10:42:02.288Z,14.20
2023-02-03T10:44:40.291Z,14.20
2023-02-03T10:47:37.935Z,14.20
2023-02-03T10:50:19.754Z,14.20
2023-02-03T10:52:47.111Z,14.30
2023-02-03T10:55:23.136Z,14.30
2023-02-03T10:57:50.400Z,14.30
2023-02-03T11:00:22.425Z,14.40
2023-02-03T11:03:29.067Z,14.40
2023-02-03T11:06:16.711Z,14.40
2023-02-03T11:08:47.360Z,14.50
2023-02-03T11:11:37.358Z,14.50
2023-02-03T11:14:04.173Z,14.50
2023-02-03T11:16:33.939Z,14.50
2023-02-03T11:19:17.723Z,14.60
2023-02-03T11:21:48.960Z,14.70
2023-02-03T11:24:26.526Z,14.80
2023-02-03T11:27:18.058Z,14.80
2023-02-03T11:29:50.261Z,14.90
2023-02-03T11:32:31.184Z,14.90
2023-02-03T11:35:03.639Z,15.00
2023-02-03T11:37:35.328Z,15.10
2023-02-03T11:40:34.510Z,15.10
2023-02-03T11:43:15.603Z,15.10
2023-02-03T11:46:04.451Z,15.20
2023-02-03T11:48:33.329Z,15.20
2023-02-03T11:51:40.369Z,15.30
2023-02-03T11:54:25.559Z,15.30
2023-02-03T11:57:07.862Z,15.40
2023-02-03T11:59:46.079Z,15.40
2023-02-03T12:02:51.053Z,15.50
2023-02-03T12:05:20.777Z,15.50
2023-02-03T12:08:09.912Z,15.60
2023-02-03T12:10:51.717Z,15.60
2023-02-03T12:13:46.983Z,15.70
2023-02-03T12:16:19.842Z,15.80
2023-02-03T12:18:49.829Z,15.80
2023-02-03T12:21:22.601Z,15.90
2023-02-03T12:24:04.521Z,16.00
2023-02-03T12:27:13.305Z,16.00
2023-02-03T12:29:44.072Z,16.10
2023-02-03T12:32:52.107Z,16.20
2023-02-03T12:35:36.586Z,16.20
2023-02-03T12:38:26.071Z,16.30
2023-02-03T12:40:58.026Z,16.40
2023-02-03T12:43:37.613Z,16.30
2023-02-03T12:46:15.313Z,16.30
2023-02-03T12:48:49.274Z,16.30
2023-02-03T12:51:21.202Z,16.30
2023-02-03T12:53:55.258Z,16.30
2023-02-03T12:56:27.853Z,16.40
2023-02-03T12:59:05.864Z,16.40
2023-02-03T13:01:41.728Z,16.40
2023-02-03T13:04:37.237Z,16.40
2023-02-03T13:07:28.815Z,16.50
2023-02-03T13:10:05.663Z,16.50
2023-02-03T13:12:53.125Z,16.50
2023-02-03T13:15:39.822Z,16.40
2023-02-03T13:18:26.694Z,16.50
2023-02-03T13:20:54.536Z,16.40
2023-02-03T13:23:22.305Z,16.50
2023-02-03T13:26:07.681Z,16.60
2023-02-03T13:29:18.230Z,16.60
2023-02-03T13:31:48.066Z,16.60
2023-02-03T13:34:23.834Z,16.70
2023-02-03T13:37:08.766Z,16.80
2023-02-03T13:39:41.168Z,16.80
2023-02-03T13:42:16.953Z,16.90
2023-02-03T13:44:46.944Z,16.90
2023-02-03T13:47:21.571Z,16.90
2023-02-03T13:49:59.922Z,17.00
2023-02-03T13:52:38.703Z,16.90
2023-02-03T13:55:07.208Z,16.90
2023-02-03T13:57:38.683Z,16.90
2023-02-03T14:00:27.923Z,16.90
2023-02-03T14:02:56.297Z,16.90
2023-02-03T14:05:41.666Z,16.90
2023-02-03T14:08:27.166Z,16.80
2023-02-03T14:11:31.671Z,16.70
2023-02-03T14:14:07.476Z,16.70
2023-02-03T14:16:39.231Z,16.70
2023-02-03T14:19:13.624Z,16.60
2023-02-03T14:21:49.432Z,16.60
2023-02-03T14:24:17.929Z,16.60
2023-02-03T14:26:49.987Z,16.60
2023-02-03T14:29:35.299Z,16.60
2023-02-03T14:32:13.043Z,16.60
2023-02-03T14:34:39.956Z,16.60
2023-02-03T14:37:13.979Z,16.60
2023-02-03T14:39:55.375Z,16.60
2023-02-03T14:42:40.758Z,16.60
2023-02-03T14:45:29.461Z,16.60
2023-02-03T14:48:33.717Z,16.60
2023-02-03T14:51:15.368Z,16.60
2023-02-03T14:54:26.444Z,16.60
2023-02-03T14:57:30.277Z,16.60
2023-02-03T15:00:24.161Z,16.60
2023-02-03T15:03:09.783Z,16.60
2023-02-03T15:05:53.523Z,16.60
2023-02-03T15:08:44.870Z,16.60
2023-02-03T15:11:31.128Z,16.60
2023-02-03T15:14:22.826Z,16.60
2023-02-03T15:17:02.349Z,16.50
2023-02-03T15:19:34.390Z,16.50
2023-02-03T15:22:01.849Z,16.50
2023-02-03T15:24:36.834Z,16.50
2023-02-03T15:27:03.958Z,16.40
2023-02-03T15:29:36.567Z,16.50
2023-02-03T15:32:32.821Z,16.40
2023-02-03T15:35:03.338Z,16.40
2023-02-03T15:37:50.266Z,16.30
2023-02-03T15:40:20.158Z,16.30
2023-02-03T15:43:00.945Z,16.30
2023-02-03T15:45:31.214Z,16.30
2023-02-03T15:48:05.718Z,16.20
2023-02-03T15:50:41.823Z,16.20
2023-02-03T15:53:26.234Z,16.20
2023-02-03T15:55:59.474Z,16.20
2023-02-03T15:58:33.120Z,16.10
2023-02-03T16:01:07.962Z,16.10
2023-02-03T16:03:40.828Z,16.10
2023-02-03T16:06:16.942Z,16.10
2023-02-03T16:08:48.940Z,16.10
2023-02-03T16:11:21.672Z,16.10
2023-02-03T16:13:48.576Z,16.10
2023-02-03T16:16:26.705Z,16.10
2023-02-03T16:18:58.554Z,16.10
2023-02-03T16:21:30.341Z,16.10
2023-02-03T16:24:01.626Z,16.10
2023-02-03T16:26:31.009Z,16.10
2023-02-03T16:29:16.454Z,16.00
2023-02-03T16:32:07.557Z,16.00
2023-02-03T16:34:53.220Z,16.00
2023-02-03T16:37:43.211Z,16.00
2023-02-03T16:40:33.821Z,16.00
2023-02-03T16:43:20.826Z,15.90
2023-02-03T16:46:13.397Z,15.90
2023-02-03T16:48:59.011Z,15.90
2023-02-03T16:51:39.369Z,15.80
2023-02-03T16:54:07.175Z,15.80
2023-02-03T16:56:34.114Z,15.80
2023-02-03T16:59:00.982Z,15.70
2023-02-03T17:01:27.821Z,15.70
2023-02-03T17:03:54.682Z,15.70
2023-02-03T17:06:21.585Z,15.70
2023-02-03T17:08:48.431Z,15.70
2023-02-03T17:11:18.559Z,15.70
2023-02-03T17:13:46.655Z,15.60
2023-02-03T17:16:18.855Z,15.60
2023-02-03T17:18:46.502Z,15.50
2023-02-03T17:21:18.547Z,15.50
2023-02-03T17:23:45.413Z,15.50
2023-02-03T17:26:12.414Z,15.50
2023-02-03T17:28:43.159Z,15.50
2023-02-03T17:31:16.244Z,15.50
2023-02-03T17:33:43.429Z,15.40
2023-02-03T17:36:15.996Z,15.40
2023-02-03T17:55:19.071Z,15.40
2023-02-03T17:57:45.884Z,15.40
2023-02-03T18:00:13.293Z,15.40
2023-02-03T18:02:40.529Z,15.40
2023-02-03T18:05:07.677Z,15.40
2023-02-03T18:07:34.934Z,15.40
2023-02-03T18:10:01.979Z,15.40
2023-02-03T18:12:30.062Z,15.30
2023-02-03T18:14:57.770Z,15.30
2023-02-03T18:17:24.767Z,15.30
2023-02-03T18:19:55.784Z,15.30
2023-02-03T18:22:23.253Z,15.30
2023-02-03T18:24:53.203Z,15.30
2023-02-03T18:27:20.271Z,15.20
2023-02-03T18:29:48.312Z,15.20
2023-02-03T18:32:16.772Z,15.30
2023-02-03T18:34:44.095Z,15.30
2023-02-03T18:37:11.642Z,15.30
2023-02-03T18:39:38.596Z,15.20
2023-02-03T18:42:07.270Z,15.20
2023-02-03T18:44:34.613Z,15.20
2023-02-03T18:47:07.778Z,15.20
2023-02-03T18:49:36.003Z,15.10
2023-02-03T18:52:02.927Z,15.00
2023-02-03T18:54:29.911Z,15.00
2023-02-03T18:57:02.920Z,14.90
2023-02-03T18:59:30.284Z,14.90
2023-02-03T19:01:57.112Z,14.80
2023-02-03T19:04:23.946Z,14.80
2023-02-03T19:06:52.647Z,14.70
2023-02-03T19:09:22.354Z,14.60
2023-02-03T19:11:49.272Z,14.60
2023-02-03T19:14:16.601Z,14.60
2023-02-03T19:16:43.842Z,14.60
2023-02-03T19:19:13.679Z,14.60
2023-02-03T19:21:40.674Z,14.60
2023-02-03T19:24:07.761Z,14.60
2023-02-03T19:26:35.146Z,14.60
2023-02-03T19:29:02.031Z,14.60
2023-02-03T19:31:29.047Z,14.60
2023-02-03T19:33:58.846Z,14.60
2023-02-03T19:36:27.645Z,14.60
2023-02-03T19:38:55.039Z,14.50
2023-02-03T19:41:22.692Z,14.50
2023-02-03T19:43:52.204Z,14.50
2023-02-03T19:46:21.766Z,14.50
2023-02-03T19:48:49.115Z,14.40
2023-02-03T19:51:16.162Z,14.40
2023-02-03T19:53:43.042Z,14.40
2023-02-03T19:56:09.956Z,14.30
2023-02-03T19:58:36.931Z,14.30
2023-02-03T20:01:03.840Z,14.30
2023-02-03T20:03:30.779Z,14.30
2023-02-03T20:05:57.632Z,14.40
2023-02-03T20:08:24.552Z,14.40
2023-02-03T20:10:52.558Z,14.40
2023-02-03T20:13:19.711Z,14.40
2023-02-03T20:15:47.672Z,14.40
2023-02-03T20:18:14.704Z,14.40
2023-02-03T20:20:41.794Z,14.40
2023-02-03T20:23:08.683Z,14.40
2023-02-03T20:25:35.576Z,14.40
2023-02-03T20:28:02.659Z,14.40
2023-02-03T20:30:30.196Z,14.40
2023-02-03T20:32:57.178Z,14.40
2023-02-03T20:35:25.246Z,14.40
2023-02-03T20:37:52.553Z,14.40
2023-02-03T20:40:22.993Z,14.40
2023-02-03T20:42:52.842Z,14.40
2023-02-03T20:45:22.303Z,14.30
2023-02-03T20:47:49.154Z,14.30
2023-02-03T20:50:31.640Z,14.20
2023-02-03T20:53:11.807Z,14.20
2023-02-03T20:55:38.664Z,14.20
2023-02-03T20:58:17.914Z,14.20
2023-02-03T21:00:45.733Z,14.20
2023-02-03T21:03:33.652Z,14.20
2023-02-03T21:06:00.660Z,14.10
2023-02-03T21:08:28.539Z,14.10
2023-02-03T21:10:55.568Z,14.10
2023-02-03T21:13:23.953Z,14.10
2023-02-03T21:15:53.320Z,14.00
2023-02-03T21:18:33.659Z,14.00
2023-02-03T21:21:01.322Z,14.00
2023-02-03T21:23:48.446Z,14.00
2023-02-03T21:26:23.009Z,14.00
2023-02-03T21:28:58.463Z,14.00
2023-02-03T21:31:29.444Z,14.00
2023-02-03T21:33:58.683Z,14.00
2023-02-03T21:36:28.762Z,14.00
2023-02-03T21:38:59.155Z,14.00
2023-02-03T21:41:29.590Z,13.90
2023-02-03T21:43:58.042Z,13.90
2023-02-03T21:46:26.735Z,13.90
2023-02-03T21:48:58.028Z,13.90
2023-02-03T21:51:37.144Z,13.90
2023-02-03T21:54:33.013Z,13.90
2023-02-03T21:57:00.790Z,13.90
2023-02-03T21:59:35.344Z,13.90
2023-02-03T22:02:03.607Z,14.00
2023-02-03T22:04:31.652Z,13.90
2023-02-03T22:06:58.500Z,13.90
2023-02-03T22:09:27.053Z,13.90
2023-02-03T22:11:53.998Z,13.90
2023-02-03T22:14:21.167Z,13.90
2023-02-03T22:16:48.252Z,13.80
2023-02-03T22:19:17.526Z,13.80
2023-02-03T22:21:44.854Z,13.80
2023-02-03T22:24:11.812Z,13.70
2023-02-03T22:26:38.694Z,13.70
2023-02-03T22:29:05.910Z,13.70
2023-02-03T22:31:33.085Z,13.70
2023-02-03T22:34:00.114Z,13.60
2023-02-03T22:36:27.093Z,13.70
2023-02-03T22:38:54.025Z,13.60
2023-02-03T22:41:21.669Z,13.60
2023-02-03T22:43:48.546Z,13.60
2023-02-03T22:46:15.472Z,13.60
2023-02-03T22:48:42.393Z,13.60
2023-02-03T22:51:09.275Z,13.60
2023-02-03T22:53:36.196Z,13.60
2023-02-03T22:56:03.079Z,13.60
2023-02-03T22:58:30.012Z,13.60
2023-02-03T23:00:56.935Z,13.60
2023-02-03T23:03:23.848Z,13.60
2023-02-03T23:05:50.785Z,13.60
2023-02-03T23:08:17.786Z,13.60
2023-02-03T23:10:44.660Z,13.60
2023-02-03T23:13:11.488Z,13.60
2023-02-03T23:15:38.429Z,13.60
2023-02-03T23:18:05.358Z,13.60
2023-02-03T23:20:33.424Z,13.60
2023-02-03T23:23:00.414Z,13.60
2023-02-03T23:25:27.301Z,13.60
2023-02-03T23:27:54.251Z,13.60
2023-02-03T23:30:21.301Z,13.60
2023-02-03T23:32:48.161Z,13.50
2023-02-03T23:35:33.498Z,13.50
2023-02-03T23:38:00.311Z,13.50
2023-02-03T23:40:27.205Z,13.50
2023-02-03T23:42:54.067Z,13.50
2023-02-03T23:45:20.979Z,13.50
2023-02-03T23:47:48.008Z,13.60
2023-02-03T23:50:18.985Z,13.50
2023-02-03T23:52:46.767Z,13.60
2023-02-03T23:55:19.580Z,13.60
2023-02-03T23:57:47.276Z,13.60
